sensor_id;sensor_type;location;lat;lon;timestamp;pressure;altitude;pressure_sealevel;temperature;humidity
79004;BME280;68369;51.050;17.018;2023-07-09T00:01:22;100563.91;;;17.75;62.33
79004;BME280;68369;51.050;17.018;2023-07-09T00:04:10;100562.61;;;17.71;62.41
79004;BME280;68369;51.050;17.018;2023-07-09T00:07:01;100563.15;;;17.65;62.55
79004;BME280;68369;51.050;17.018;2023-07-09T00:09:49;100564.39;;;17.63;62.70
79004;BME280;68369;51.050;17.018;2023-07-09T00:12:36;100566.53;;;17.60;62.86
79004;BME280;68369;51.050;17.018;2023-07-09T00:15:26;100566.81;;;17.58;63.02
79004;BME280;68369;51.050;17.018;2023-07-09T00:18:12;100568.04;;;17.56;63.17
79004;BME280;68369;51.050;17.018;2023-07-09T00:20:57;100566.52;;;17.55;63.28
79004;BME280;68369;51.050;17.018;2023-07-09T00:23:44;100565.27;;;17.50;63.34
79004;BME280;68369;51.050;17.018;2023-07-09T00:26:33;100565.84;;;17.47;63.36
79004;BME280;68369;51.050;17.018;2023-07-09T00:29:23;100568.77;;;17.42;63.32
79004;BME280;68369;51.050;17.018;2023-07-09T00:32:16;100563.42;;;17.32;63.58
79004;BME280;68369;51.050;17.018;2023-07-09T00:35:02;100568.39;;;17.35;63.62
79004;BME280;68369;51.050;17.018;2023-07-09T00:37:51;100568.48;;;17.34;63.68
79004;BME280;68369;51.050;17.018;2023-07-09T00:40:37;100575.14;;;17.32;63.76
79004;BME280;68369;51.050;17.018;2023-07-09T00:43:33;100572.07;;;17.27;63.98
79004;BME280;68369;51.050;17.018;2023-07-09T00:49:16;100570.38;;;17.21;64.22
79004;BME280;68369;51.050;17.018;2023-07-09T00:52:27;100572.08;;;17.16;64.44
79004;BME280;68369;51.050;17.018;2023-07-09T00:55:24;100573.77;;;17.12;64.60
79004;BME280;68369;51.050;17.018;2023-07-09T00:58:14;100574.39;;;17.11;64.69
79004;BME280;68369;51.050;17.018;2023-07-09T01:01:04;100571.92;;;17.11;64.63
79004;BME280;68369;51.050;17.018;2023-07-09T01:03:57;100574.54;;;17.09;64.71
79004;BME280;68369;51.050;17.018;2023-07-09T01:06:55;100572.92;;;17.06;64.56
79004;BME280;68369;51.050;17.018;2023-07-09T01:09:41;100574.85;;;17.04;64.69
79004;BME280;68369;51.050;17.018;2023-07-09T01:12:28;100577.94;;;17.00;64.51
79004;BME280;68369;51.050;17.018;2023-07-09T01:15:16;100578.55;;;16.96;64.80
79004;BME280;68369;51.050;17.018;2023-07-09T01:18:02;100578.46;;;16.92;65.00
79004;BME280;68369;51.050;17.018;2023-07-09T01:21:03;100577.56;;;16.89;65.15
79004;BME280;68369;51.050;17.018;2023-07-09T01:23:53;100574.44;;;16.88;65.28
79004;BME280;68369;51.050;17.018;2023-07-09T01:26:41;100578.59;;;16.87;65.37
79004;BME280;68369;51.050;17.018;2023-07-09T01:29:37;100580.20;;;16.84;65.43
79004;BME280;68369;51.050;17.018;2023-07-09T01:32:23;100579.71;;;16.78;65.50
79004;BME280;68369;51.050;17.018;2023-07-09T01:35:10;100581.31;;;16.74;65.65
79004;BME280;68369;51.050;17.018;2023-07-09T01:37:57;100583.25;;;16.72;65.75
79004;BME280;68369;51.050;17.018;2023-07-09T01:40:43;100581.39;;;16.68;66.12
79004;BME280;68369;51.050;17.018;2023-07-09T01:43:32;100582.13;;;16.67;66.24
79004;BME280;68369;51.050;17.018;2023-07-09T01:46:19;100576.08;;;16.68;66.13
79004;BME280;68369;51.050;17.018;2023-07-09T01:49:09;100578.23;;;16.68;66.20
79004;BME280;68369;51.050;17.018;2023-07-09T01:51:54;100575.46;;;16.66;66.19
79004;BME280;68369;51.050;17.018;2023-07-09T01:54:40;100572.77;;;16.64;66.13
79004;BME280;68369;51.050;17.018;2023-07-09T01:57:29;100571.17;;;16.61;66.16
79004;BME280;68369;51.050;17.018;2023-07-09T02:00:19;100551.89;;;16.45;66.21
79004;BME280;68369;51.050;17.018;2023-07-09T02:03:05;100574.58;;;16.52;66.31
79004;BME280;68369;51.050;17.018;2023-07-09T02:05:54;100570.74;;;16.51;66.07
79004;BME280;68369;51.050;17.018;2023-07-09T02:08:46;100568.32;;;16.50;66.05
79004;BME280;68369;51.050;17.018;2023-07-09T02:11:32;100566.44;;;16.50;65.94
79004;BME280;68369;51.050;17.018;2023-07-09T02:14:19;100569.02;;;16.48;65.93
79004;BME280;68369;51.050;17.018;2023-07-09T02:17:07;100570.33;;;16.44;65.96
79004;BME280;68369;51.050;17.018;2023-07-09T02:19:53;100575.91;;;16.40;66.13
79004;BME280;68369;51.050;17.018;2023-07-09T02:22:39;100580.73;;;16.36;66.33
79004;BME280;68369;51.050;17.018;2023-07-09T02:25:26;100577.31;;;16.31;66.45
79004;BME280;68369;51.050;17.018;2023-07-09T02:28:12;100577.29;;;16.28;66.46
79004;BME280;68369;51.050;17.018;2023-07-09T02:30:58;100582.91;;;16.29;66.54
79004;BME280;68369;51.050;17.018;2023-07-09T02:33:44;100582.02;;;16.29;66.46
79004;BME280;68369;51.050;17.018;2023-07-09T02:36:30;100571.39;;;16.21;66.35
79004;BME280;68369;51.050;17.018;2023-07-09T02:39:16;100578.23;;;16.25;66.36
79004;BME280;68369;51.050;17.018;2023-07-09T02:42:04;100586.44;;;16.21;66.51
79004;BME280;68369;51.050;17.018;2023-07-09T02:44:50;100602.23;;;16.17;66.74
79004;BME280;68369;51.050;17.018;2023-07-09T02:51:13;100592.45;;;16.06;66.91
79004;BME280;68369;51.050;17.018;2023-07-09T02:54:01;100595.02;;;16.10;67.04
79004;BME280;68369;51.050;17.018;2023-07-09T02:56:47;100589.76;;;16.10;67.17
79004;BME280;68369;51.050;17.018;2023-07-09T02:59:33;100589.65;;;16.12;67.25
79004;BME280;68369;51.050;17.018;2023-07-09T03:02:19;100590.69;;;16.12;67.26
79004;BME280;68369;51.050;17.018;2023-07-09T03:05:06;100593.81;;;16.10;67.16
79004;BME280;68369;51.050;17.018;2023-07-09T03:07:52;100604.95;;;16.09;67.44
79004;BME280;68369;51.050;17.018;2023-07-09T03:10:38;100606.02;;;16.09;67.45
79004;BME280;68369;51.050;17.018;2023-07-09T03:13:26;100602.73;;;16.11;67.36
79004;BME280;68369;51.050;17.018;2023-07-09T03:16:12;100597.91;;;16.12;67.51
79004;BME280;68369;51.050;17.018;2023-07-09T03:19:05;100601.95;;;16.13;67.52
79004;BME280;68369;51.050;17.018;2023-07-09T03:21:52;100604.77;;;16.12;67.68
79004;BME280;68369;51.050;17.018;2023-07-09T03:24:38;100610.27;;;16.12;67.65
79004;BME280;68369;51.050;17.018;2023-07-09T03:27:24;100611.69;;;16.12;67.69
79004;BME280;68369;51.050;17.018;2023-07-09T03:30:12;100615.66;;;16.14;67.81
79004;BME280;68369;51.050;17.018;2023-07-09T03:32:58;100593.81;;;16.04;67.98
79004;BME280;68369;51.050;17.018;2023-07-09T03:35:49;100607.45;;;16.21;67.90
79004;BME280;68369;51.050;17.018;2023-07-09T03:38:35;100609.09;;;16.23;68.01
79004;BME280;68369;51.050;17.018;2023-07-09T03:41:21;100612.03;;;16.27;68.07
79004;BME280;68369;51.050;17.018;2023-07-09T03:44:07;100610.78;;;16.30;68.14
79004;BME280;68369;51.050;17.018;2023-07-09T03:46:54;100611.56;;;16.35;68.27
79004;BME280;68369;51.050;17.018;2023-07-09T03:49:40;100611.57;;;16.40;68.28
79004;BME280;68369;51.050;17.018;2023-07-09T03:52:27;100603.34;;;16.45;68.29
79004;BME280;68369;51.050;17.018;2023-07-09T03:55:12;100608.73;;;16.49;68.36
79004;BME280;68369;51.050;17.018;2023-07-09T03:57:59;100602.36;;;16.52;68.40
79004;BME280;68369;51.050;17.018;2023-07-09T04:00:57;100606.16;;;16.53;68.49
79004;BME280;68369;51.050;17.018;2023-07-09T04:03:43;100609.17;;;16.56;68.48
79004;BME280;68369;51.050;17.018;2023-07-09T04:06:30;100608.49;;;16.59;68.41
79004;BME280;68369;51.050;17.018;2023-07-09T04:09:16;100610.35;;;16.63;68.43
79004;BME280;68369;51.050;17.018;2023-07-09T04:12:05;100616.53;;;16.66;68.33
79004;BME280;68369;51.050;17.018;2023-07-09T04:14:33;100610.96;;;16.67;68.38
79004;BME280;68369;51.050;17.018;2023-07-09T04:17:19;100616.12;;;16.69;68.66
79004;BME280;68369;51.050;17.018;2023-07-09T04:20:18;100615.60;;;16.72;68.54
79004;BME280;68369;51.050;17.018;2023-07-09T04:23:05;100623.20;;;16.78;68.75
79004;BME280;68369;51.050;17.018;2023-07-09T04:25:52;100625.40;;;16.83;68.66
79004;BME280;68369;51.050;17.018;2023-07-09T04:28:39;100627.96;;;16.89;68.66
79004;BME280;68369;51.050;17.018;2023-07-09T04:31:25;100628.79;;;16.93;68.65
79004;BME280;68369;51.050;17.018;2023-07-09T04:34:11;100603.38;;;16.87;68.77
79004;BME280;68369;51.050;17.018;2023-07-09T04:36:56;100624.54;;;17.02;68.21
79004;BME280;68369;51.050;17.018;2023-07-09T04:39:43;100623.88;;;17.06;68.26
79004;BME280;68369;51.050;17.018;2023-07-09T04:42:29;100636.67;;;17.13;67.88
79004;BME280;68369;51.050;17.018;2023-07-09T04:45:15;100642.39;;;17.24;68.24
79004;BME280;68369;51.050;17.018;2023-07-09T04:48:00;100643.83;;;17.31;68.46
79004;BME280;68369;51.050;17.018;2023-07-09T04:50:45;100641.30;;;17.37;68.56
79004;BME280;68369;51.050;17.018;2023-07-09T04:53:37;100646.89;;;17.44;68.73
79004;BME280;68369;51.050;17.018;2023-07-09T04:56:24;100646.19;;;17.50;68.71
79004;BME280;68369;51.050;17.018;2023-07-09T04:59:12;100643.21;;;17.57;68.74
79004;BME280;68369;51.050;17.018;2023-07-09T05:01:58;100646.07;;;17.65;68.56
79004;BME280;68369;51.050;17.018;2023-07-09T05:04:44;100646.48;;;17.72;68.51
79004;BME280;68369;51.050;17.018;2023-07-09T05:07:29;100645.80;;;17.76;68.60
79004;BME280;68369;51.050;17.018;2023-07-09T05:10:16;100646.98;;;17.83;68.44
79004;BME280;68369;51.050;17.018;2023-07-09T05:13:02;100656.90;;;17.89;68.08
79004;BME280;68369;51.050;17.018;2023-07-09T05:25:26;100643.90;;;18.23;66.22
79004;BME280;68369;51.050;17.018;2023-07-09T05:28:13;100657.29;;;18.35;66.40
79004;BME280;68369;51.050;17.018;2023-07-09T05:30:59;100661.83;;;18.46;65.11
79004;BME280;68369;51.050;17.018;2023-07-09T05:33:46;100663.02;;;18.57;64.90
79004;BME280;68369;51.050;17.018;2023-07-09T05:36:32;100662.85;;;18.67;64.37
79004;BME280;68369;51.050;17.018;2023-07-09T05:39:17;100660.98;;;18.76;63.86
79004;BME280;68369;51.050;17.018;2023-07-09T05:45:18;100662.73;;;18.96;63.55
79004;BME280;68369;51.050;17.018;2023-07-09T05:48:04;100661.27;;;19.02;63.26
79004;BME280;68369;51.050;17.018;2023-07-09T05:50:53;100660.66;;;19.13;62.85
79004;BME280;68369;51.050;17.018;2023-07-09T05:53:43;100657.61;;;19.23;62.38
79004;BME280;68369;51.050;17.018;2023-07-09T05:56:29;100656.84;;;19.33;62.23
79004;BME280;68369;51.050;17.018;2023-07-09T05:59:15;100657.24;;;19.45;61.79
79004;BME280;68369;51.050;17.018;2023-07-09T06:02:00;100655.95;;;19.57;61.28
79004;BME280;68369;51.050;17.018;2023-07-09T06:04:47;100655.55;;;19.70;61.12
79004;BME280;68369;51.050;17.018;2023-07-09T06:07:36;100647.10;;;19.84;60.53
79004;BME280;68369;51.050;17.018;2023-07-09T06:10:22;100656.14;;;19.98;60.23
79004;BME280;68369;51.050;17.018;2023-07-09T06:13:07;100652.15;;;20.13;59.85
79004;BME280;68369;51.050;17.018;2023-07-09T06:15:54;100654.73;;;20.30;60.12
79004;BME280;68369;51.050;17.018;2023-07-09T06:18:41;100656.70;;;20.48;59.93
79004;BME280;68369;51.050;17.018;2023-07-09T06:21:27;100655.39;;;20.65;59.71
79004;BME280;68369;51.050;17.018;2023-07-09T06:24:12;100657.64;;;20.84;60.10
79004;BME280;68369;51.050;17.018;2023-07-09T06:26:58;100657.80;;;21.04;59.99
79004;BME280;68369;51.050;17.018;2023-07-09T06:29:48;100660.23;;;21.27;58.81
79004;BME280;68369;51.050;17.018;2023-07-09T06:42:21;100658.88;;;22.27;57.28
79004;BME280;68369;51.050;17.018;2023-07-09T06:45:07;100656.79;;;22.46;56.70
79004;BME280;68369;51.050;17.018;2023-07-09T06:47:53;100656.30;;;22.66;55.83
79004;BME280;68369;51.050;17.018;2023-07-09T06:50:41;100662.38;;;22.87;55.10
79004;BME280;68369;51.050;17.018;2023-07-09T06:53:28;100666.71;;;23.06;54.29
79004;BME280;68369;51.050;17.018;2023-07-09T06:56:14;100672.55;;;23.27;53.53
79004;BME280;68369;51.050;17.018;2023-07-09T06:58:59;100665.05;;;23.49;52.86
79004;BME280;68369;51.050;17.018;2023-07-09T07:01:44;100666.08;;;23.71;52.96
79004;BME280;68369;51.050;17.018;2023-07-09T07:04:30;100667.38;;;23.94;52.73
79004;BME280;68369;51.050;17.018;2023-07-09T07:07:16;100670.28;;;24.16;52.37
79004;BME280;68369;51.050;17.018;2023-07-09T07:10:01;100664.16;;;24.40;51.45
79004;BME280;68369;51.050;17.018;2023-07-09T07:12:49;100661.64;;;24.64;50.91
79004;BME280;68369;51.050;17.018;2023-07-09T07:15:36;100665.92;;;24.90;50.20
79004;BME280;68369;51.050;17.018;2023-07-09T07:18:22;100662.03;;;25.17;49.96
79004;BME280;68369;51.050;17.018;2023-07-09T07:21:09;100642.95;;;25.38;49.11
79004;BME280;68369;51.050;17.018;2023-07-09T07:23:54;100652.20;;;25.75;48.30
79004;BME280;68369;51.050;17.018;2023-07-09T07:26:40;100650.38;;;26.06;47.47
79004;BME280;68369;51.050;17.018;2023-07-09T07:29:25;100649.31;;;26.37;46.69
79004;BME280;68369;51.050;17.018;2023-07-09T07:32:10;100647.59;;;26.67;46.23
79004;BME280;68369;51.050;17.018;2023-07-09T07:34:56;100650.14;;;27.02;45.49
79004;BME280;68369;51.050;17.018;2023-07-09T07:37:41;100648.52;;;27.35;44.77
79004;BME280;68369;51.050;17.018;2023-07-09T07:40:27;100647.09;;;27.69;44.15
79004;BME280;68369;51.050;17.018;2023-07-09T07:43:12;100646.02;;;28.05;43.49
79004;BME280;68369;51.050;17.018;2023-07-09T07:45:57;100644.63;;;28.40;42.75
79004;BME280;68369;51.050;17.018;2023-07-09T07:48:43;100640.08;;;28.77;42.18
79004;BME280;68369;51.050;17.018;2023-07-09T07:51:29;100637.94;;;29.17;41.48
79004;BME280;68369;51.050;17.018;2023-07-09T07:54:14;100634.52;;;29.57;39.40
79004;BME280;68369;51.050;17.018;2023-07-09T07:57:01;100633.33;;;30.00;38.71
79004;BME280;68369;51.050;17.018;2023-07-09T07:59:48;100635.54;;;30.55;37.69
79004;BME280;68369;51.050;17.018;2023-07-09T08:02:33;100637.73;;;31.08;36.07
79004;BME280;68369;51.050;17.018;2023-07-09T08:08:34;100637.96;;;32.03;34.96
79004;BME280;68369;51.050;17.018;2023-07-09T08:14:21;100648.16;;;32.62;33.45
79004;BME280;68369;51.050;17.018;2023-07-09T08:17:08;100652.62;;;32.88;33.58
79004;BME280;68369;51.050;17.018;2023-07-09T08:29:39;100662.17;;;32.70;31.26
79004;BME280;68369;51.050;17.018;2023-07-09T08:32:29;100655.95;;;32.51;31.17
79004;BME280;68369;51.050;17.018;2023-07-09T08:35:14;100656.15;;;32.39;31.24
79004;BME280;68369;51.050;17.018;2023-07-09T08:38:07;100658.25;;;32.24;31.41
79004;BME280;68369;51.050;17.018;2023-07-09T09:29:41;100656.42;;;31.37;30.92
79004;BME280;68369;51.050;17.018;2023-07-09T09:32:36;100659.57;;;31.38;30.93
79004;BME280;68369;51.050;17.018;2023-07-09T09:44:45;100656.15;;;31.49;30.35
79004;BME280;68369;51.050;17.018;2023-07-09T09:47:31;100654.77;;;31.57;30.02
79004;BME280;68369;51.050;17.018;2023-07-09T09:50:37;100653.89;;;31.63;30.07
79004;BME280;68369;51.050;17.018;2023-07-09T09:53:24;100654.45;;;31.64;30.02
79004;BME280;68369;51.050;17.018;2023-07-09T10:25:57;100655.41;;;32.04;29.44
79004;BME280;68369;51.050;17.018;2023-07-09T10:32:49;100657.07;;;32.19;28.42
79004;BME280;68369;51.050;17.018;2023-07-09T10:41:51;100647.10;;;32.90;27.93
79004;BME280;68369;51.050;17.018;2023-07-09T10:44:44;100647.73;;;33.19;28.00
79004;BME280;68369;51.050;17.018;2023-07-09T10:50:37;100638.83;;;33.76;27.02
79004;BME280;68369;51.050;17.018;2023-07-09T10:53:41;100638.36;;;33.99;26.66
79004;BME280;68369;51.050;17.018;2023-07-09T10:56:34;100640.09;;;34.15;26.97
79004;BME280;68369;51.050;17.018;2023-07-09T10:59:37;100638.40;;;34.36;27.12
79004;BME280;68369;51.050;17.018;2023-07-09T11:02:35;100638.12;;;34.56;26.02
79004;BME280;68369;51.050;17.018;2023-07-09T11:05:23;100641.24;;;34.76;25.06
79004;BME280;68369;51.050;17.018;2023-07-09T11:08:21;100640.04;;;34.93;24.40
79004;BME280;68369;51.050;17.018;2023-07-09T11:11:17;100634.21;;;35.12;23.83
79004;BME280;68369;51.050;17.018;2023-07-09T11:14:26;100631.50;;;35.30;23.35
79004;BME280;68369;51.050;17.018;2023-07-09T11:17:20;100631.30;;;35.47;23.58
79004;BME280;68369;51.050;17.018;2023-07-09T11:20:24;100628.98;;;35.61;22.82
79004;BME280;68369;51.050;17.018;2023-07-09T11:23:22;100630.14;;;35.75;23.86
79004;BME280;68369;51.050;17.018;2023-07-09T11:26:13;100631.69;;;35.91;23.60
79004;BME280;68369;51.050;17.018;2023-07-09T11:58:36;100610.05;;;37.00;21.51
79004;BME280;68369;51.050;17.018;2023-07-09T12:01:40;100606.36;;;37.08;21.61
79004;BME280;68369;51.050;17.018;2023-07-09T12:04:34;100606.02;;;37.16;21.11
79004;BME280;68369;51.050;17.018;2023-07-09T12:07:23;100599.66;;;37.18;21.15
79004;BME280;68369;51.050;17.018;2023-07-09T12:10:23;100598.86;;;37.17;20.75
79004;BME280;68369;51.050;17.018;2023-07-09T12:13:12;100594.21;;;37.19;21.17
79004;BME280;68369;51.050;17.018;2023-07-09T12:16:00;100596.50;;;37.22;20.73
79004;BME280;68369;51.050;17.018;2023-07-09T12:18:49;100590.77;;;37.28;20.53
79004;BME280;68369;51.050;17.018;2023-07-09T12:21:39;100595.59;;;37.34;20.88
79004;BME280;68369;51.050;17.018;2023-07-09T12:25:05;100597.63;;;37.39;20.49
79004;BME280;68369;51.050;17.018;2023-07-09T12:28:04;100594.07;;;37.39;20.29
79004;BME280;68369;51.050;17.018;2023-07-09T12:30:52;100594.65;;;37.43;19.99
79004;BME280;68369;51.050;17.018;2023-07-09T12:33:38;100592.11;;;37.44;19.98
79004;BME280;68369;51.050;17.018;2023-07-09T12:36:25;100586.65;;;37.45;20.25
79004;BME280;68369;51.050;17.018;2023-07-09T12:39:16;100584.66;;;37.43;19.96
79004;BME280;68369;51.050;17.018;2023-07-09T13:23:04;100554.64;;;37.49;18.62
79004;BME280;68369;51.050;17.018;2023-07-09T13:25:53;100549.01;;;37.45;18.41
79004;BME280;68369;51.050;17.018;2023-07-09T13:28:44;100552.33;;;37.44;18.84
79004;BME280;68369;51.050;17.018;2023-07-09T14:53:56;100516.40;;;33.16;21.37
79004;BME280;68369;51.050;17.018;2023-07-09T14:56:42;100520.06;;;32.87;21.51
79004;BME280;68369;51.050;17.018;2023-07-09T14:59:27;100522.10;;;32.65;21.77
79004;BME280;68369;51.050;17.018;2023-07-09T15:02:30;100519.49;;;32.44;21.77
79004;BME280;68369;51.050;17.018;2023-07-09T15:05:23;100522.70;;;32.21;22.00
79004;BME280;68369;51.050;17.018;2023-07-09T15:08:14;100517.02;;;32.01;22.24
79004;BME280;68369;51.050;17.018;2023-07-09T15:11:03;100518.27;;;31.84;22.59
79004;BME280;68369;51.050;17.018;2023-07-09T15:13:52;100512.13;;;31.70;22.49
79004;BME280;68369;51.050;17.018;2023-07-09T15:16:38;100508.63;;;31.59;22.41
79004;BME280;68369;51.050;17.018;2023-07-09T15:19:23;100509.35;;;31.49;22.41
79004;BME280;68369;51.050;17.018;2023-07-09T15:22:31;100508.94;;;31.40;22.52
79004;BME280;68369;51.050;17.018;2023-07-09T15:25:27;100503.55;;;31.32;22.50
79004;BME280;68369;51.050;17.018;2023-07-09T15:28:15;100499.41;;;31.23;22.71
79004;BME280;68369;51.050;17.018;2023-07-09T15:31:02;100498.82;;;31.17;22.55
79004;BME280;68369;51.050;17.018;2023-07-09T15:33:50;100496.96;;;31.10;22.69
79004;BME280;68369;51.050;17.018;2023-07-09T15:36:35;100493.33;;;31.05;22.67
79004;BME280;68369;51.050;17.018;2023-07-09T15:39:21;100490.41;;;31.00;22.67
79004;BME280;68369;51.050;17.018;2023-07-09T15:42:13;100485.35;;;30.96;22.99
79004;BME280;68369;51.050;17.018;2023-07-09T15:44:59;100492.34;;;30.89;22.97
79004;BME280;68369;51.050;17.018;2023-07-09T15:47:46;100495.48;;;30.85;22.74
79004;BME280;68369;51.050;17.018;2023-07-09T15:50:34;100495.98;;;30.80;22.37
79004;BME280;68369;51.050;17.018;2023-07-09T15:53:20;100491.29;;;30.74;22.56
79004;BME280;68369;51.050;17.018;2023-07-09T15:56:29;100490.56;;;30.69;22.50
79004;BME280;68369;51.050;17.018;2023-07-09T15:59:33;100483.91;;;30.60;22.50
79004;BME280;68369;51.050;17.018;2023-07-09T16:02:21;100486.18;;;30.50;22.75
79004;BME280;68369;51.050;17.018;2023-07-09T16:05:27;100481.44;;;30.44;22.64
79004;BME280;68369;51.050;17.018;2023-07-09T16:08:16;100475.92;;;30.35;22.73
79004;BME280;68369;51.050;17.018;2023-07-09T16:11:39;100469.24;;;30.28;22.76
79004;BME280;68369;51.050;17.018;2023-07-09T16:14:27;100471.34;;;30.21;22.68
79004;BME280;68369;51.050;17.018;2023-07-09T16:17:13;100469.51;;;30.14;22.99
79004;BME280;68369;51.050;17.018;2023-07-09T16:19:58;100468.12;;;30.06;23.21
79004;BME280;68369;51.050;17.018;2023-07-09T16:22:48;100463.30;;;29.99;23.34
79004;BME280;68369;51.050;17.018;2023-07-09T16:25:35;100457.23;;;29.90;23.70
79004;BME280;68369;51.050;17.018;2023-07-09T16:28:21;100463.58;;;29.82;23.92
79004;BME280;68369;51.050;17.018;2023-07-09T16:31:06;100464.92;;;29.75;24.07
79004;BME280;68369;51.050;17.018;2023-07-09T16:33:51;100464.91;;;29.67;24.55
79004;BME280;68369;51.050;17.018;2023-07-09T16:39:52;100461.65;;;29.54;24.63
79004;BME280;68369;51.050;17.018;2023-07-09T16:42:38;100463.19;;;29.45;24.69
79004;BME280;68369;51.050;17.018;2023-07-09T16:45:24;100467.20;;;29.36;25.13
79004;BME280;68369;51.050;17.018;2023-07-09T16:48:18;100463.39;;;29.27;25.00
79004;BME280;68369;51.050;17.018;2023-07-09T16:51:04;100466.16;;;29.18;25.63
79004;BME280;68369;51.050;17.018;2023-07-09T16:53:49;100463.86;;;29.08;25.78
79004;BME280;68369;51.050;17.018;2023-07-09T16:56:34;100467.29;;;28.99;25.97
79004;BME280;68369;51.050;17.018;2023-07-09T16:59:19;100464.36;;;28.88;26.54
79004;BME280;68369;51.050;17.018;2023-07-09T17:02:25;100461.16;;;28.79;26.71
79004;BME280;68369;51.050;17.018;2023-07-09T17:05:12;100463.42;;;28.69;26.79
79004;BME280;68369;51.050;17.018;2023-07-09T17:07:57;100462.16;;;28.61;27.18
79004;BME280;68369;51.050;17.018;2023-07-09T17:10:43;100461.95;;;28.52;27.29
79004;BME280;68369;51.050;17.018;2023-07-09T17:13:30;100456.50;;;28.43;27.37
79004;BME280;68369;51.050;17.018;2023-07-09T17:16:16;100456.11;;;28.34;27.52
79004;BME280;68369;51.050;17.018;2023-07-09T17:19:04;100457.58;;;28.24;27.75
79004;BME280;68369;51.050;17.018;2023-07-09T17:21:57;100460.96;;;28.15;27.94
79004;BME280;68369;51.050;17.018;2023-07-09T17:24:43;100458.70;;;28.07;28.21
79004;BME280;68369;51.050;17.018;2023-07-09T17:27:28;100457.02;;;27.97;28.26
79004;BME280;68369;51.050;17.018;2023-07-09T18:12:35;100441.20;;;26.95;32.75
79004;BME280;68369;51.050;17.018;2023-07-09T18:15:28;100441.34;;;26.89;33.54
79004;BME280;68369;51.050;17.018;2023-07-09T18:34:30;100436.86;;;26.36;34.84
79004;BME280;68369;51.050;17.018;2023-07-09T18:37:16;100437.09;;;26.27;34.95
79004;BME280;68369;51.050;17.018;2023-07-09T18:40:01;100441.62;;;26.18;34.96
79004;BME280;68369;51.050;17.018;2023-07-09T18:42:48;100444.82;;;26.10;34.91
79004;BME280;68369;51.050;17.018;2023-07-09T18:45:34;100447.27;;;26.00;35.16
79004;BME280;68369;51.050;17.018;2023-07-09T18:48:21;100451.77;;;25.92;35.44
79004;BME280;68369;51.050;17.018;2023-07-09T18:51:15;100451.67;;;25.80;35.52
79004;BME280;68369;51.050;17.018;2023-07-09T18:54:21;100457.40;;;25.68;35.03
79004;BME280;68369;51.050;17.018;2023-07-09T19:03:34;100469.22;;;25.25;36.37
79004;BME280;68369;51.050;17.018;2023-07-09T19:06:21;100475.36;;;25.12;36.73
79004;BME280;68369;51.050;17.018;2023-07-09T19:12:32;100482.28;;;24.82;37.04
79004;BME280;68369;51.050;17.018;2023-07-09T19:15:22;100485.14;;;24.69;37.64
79004;BME280;68369;51.050;17.018;2023-07-09T19:18:26;100492.15;;;24.56;37.93
79004;BME280;68369;51.050;17.018;2023-07-09T19:21:15;100495.78;;;24.43;38.16
79004;BME280;68369;51.050;17.018;2023-07-09T19:24:21;100498.58;;;24.31;38.52
79004;BME280;68369;51.050;17.018;2023-07-09T19:27:08;100498.70;;;24.19;39.25
79004;BME280;68369;51.050;17.018;2023-07-09T19:29:54;100502.63;;;24.09;39.88
79004;BME280;68369;51.050;17.018;2023-07-09T19:32:42;100503.58;;;24.01;40.06
79004;BME280;68369;51.050;17.018;2023-07-09T19:35:30;100510.17;;;23.94;40.53
79004;BME280;68369;51.050;17.018;2023-07-09T19:48:02;100525.52;;;23.60;41.82
79004;BME280;68369;51.050;17.018;2023-07-09T19:50:50;100524.73;;;23.53;41.98
79004;BME280;68369;51.050;17.018;2023-07-09T19:53:35;100525.55;;;23.46;42.22
79004;BME280;68369;51.050;17.018;2023-07-09T19:59:24;100524.42;;;23.32;42.79
79004;BME280;68369;51.050;17.018;2023-07-09T20:02:30;100524.70;;;23.24;43.06
79004;BME280;68369;51.050;17.018;2023-07-09T20:05:26;100527.65;;;23.16;43.23
79004;BME280;68369;51.050;17.018;2023-07-09T20:08:17;100527.31;;;23.08;43.55
79004;BME280;68369;51.050;17.018;2023-07-09T20:11:05;100529.90;;;23.01;43.95
79004;BME280;68369;51.050;17.018;2023-07-09T20:13:52;100530.34;;;22.94;44.20
79004;BME280;68369;51.050;17.018;2023-07-09T20:16:38;100524.95;;;22.84;44.37
79004;BME280;68369;51.050;17.018;2023-07-09T20:19:23;100521.95;;;22.76;44.79
79004;BME280;68369;51.050;17.018;2023-07-09T20:22:13;100520.17;;;22.68;45.18
79004;BME280;68369;51.050;17.018;2023-07-09T20:24:59;100518.05;;;22.60;45.38
79004;BME280;68369;51.050;17.018;2023-07-09T20:27:44;100518.45;;;22.51;45.60
79004;BME280;68369;51.050;17.018;2023-07-09T20:30:30;100522.44;;;22.45;46.05
79004;BME280;68369;51.050;17.018;2023-07-09T20:33:16;100524.18;;;22.37;46.36
79004;BME280;68369;51.050;17.018;2023-07-09T20:36:05;100528.07;;;22.29;46.48
79004;BME280;68369;51.050;17.018;2023-07-09T20:38:52;100531.09;;;22.21;46.64
79004;BME280;68369;51.050;17.018;2023-07-09T20:48:11;100531.94;;;21.97;48.43
79004;BME280;68369;51.050;17.018;2023-07-09T20:50:57;100535.22;;;21.90;48.87
79004;BME280;68369;51.050;17.018;2023-07-09T20:53:44;100535.80;;;21.83;49.51
79004;BME280;68369;51.050;17.018;2023-07-09T20:56:31;100539.13;;;21.75;49.87
79004;BME280;68369;51.050;17.018;2023-07-09T20:59:17;100540.70;;;21.68;50.05
79004;BME280;68369;51.050;17.018;2023-07-09T21:02:24;100541.68;;;21.60;50.19